EastWest Aircraft Sales has several offices across the USA. See map for information on the nearest airstrips.

Naples Municipal Airport

Available data for KAPF from the past 2 hours
NAPLES MUNICIPAL, FL
Metar
KAPF 210453Z AUTO 00000KT 10SM CLR 26/23 A2996 RMK AO2 SLP144 T02610233 403110250 $

04:53 UTC

Wind: 0° 0kt

Visibility: 10 SM

Sky:

Temp: 26 deg C / 78.8 deg F

Dewpoint: 23 deg C / 73.4 deg F

Pressure: 29.96 inHg

TAF
KAPF 210309Z 2103/2124 VRB03KT P6SM FEW025 SCT040 SCT250 FM211400 14008KT P6SM SCT250 FM211700 24008KT P6SM SCT035

Hillsboro Airport

Available data for KHIO from the past 2 hours
HILLSBORO/PORTLD, OR
Metar
KHIO 210453Z 28004KT 10SM OVC045 12/09 A3014 RMK AO2 SLP207 T01220089

04:53 UTC

Wind: 280° 4kt

Visibility: 10 SM

Sky: OVC 4500 ft

Temp: 12 deg C / 53.6 deg F

Dewpoint: 9 deg C / 48.2 deg F

Pressure: 30.14 inHg

TAF
KHIO 202340Z 2100/2124 18011G18KT P6SM -SHRA BKN015 OVC019 FM210200 21005KT P6SM VCSH SCT025 OVC060 FM211100 VRB03KT P6SM BKN020 OVC040 FM211700 16006KT P6SM -RA SCT022 OVC040 FM212100 16008KT P6SM -RA BKN022 OVC040